Time;durP1;ratioP1;P1;durP2;ratioP2;P2;SDS_P1;SDS_P2;PMS_P1;PMS_P2;Temp;Humidity;BMP_temperature;BMP_pressure;BME280_temperature;BME280_humidity;BME280_pressure;Samples;Min_cycle;Max_cycle;Signal;HPM_P1;HPM_P2
2022/07/25 00:00:26;;;;;;;7.20;5.10;;;25.10;71.20;;;26.33;45.83;100284.03;5018914;28;20732;-65
2022/07/25 00:02:53;;;;;;;5.60;4.73;;;25.20;71.00;;;26.28;45.67;100283.91;5022951;28;21175;-65
2022/07/25 00:05:20;;;;;;;6.40;5.17;;;25.10;70.70;;;26.26;45.52;100281.41;5030183;28;20620;-64
2022/07/25 00:07:48;;;;;;;5.50;5.00;;;25.10;70.70;;;26.03;46.09;100273.16;5061476;23;20721;-70
2022/07/25 00:10:16;;;;;;;5.77;5.10;;;25.00;70.70;;;25.95;46.43;100270.78;5049821;28;20619;-70
2022/07/25 00:12:44;;;;;;;5.67;5.00;;;24.90;70.90;;;25.97;46.12;100274.88;5045810;28;21291;-72
2022/07/25 00:15:12;;;;;;;6.03;5.27;;;24.80;71.10;;;25.94;46.83;100269.94;5035471;28;20635;-69
2022/07/25 00:17:39;;;;;;;6.10;5.37;;;24.80;71.70;;;25.95;46.42;100268.94;5034803;28;20648;-70
2022/07/25 00:20:07;;;;;;;6.50;5.37;;;24.80;71.60;;;25.95;46.51;100265.44;5012789;28;20613;-70
2022/07/25 00:22:34;;;;;;;10.10;5.10;;;24.80;71.60;;;25.92;46.62;100269.34;5030928;28;20620;-70
2022/07/25 00:25:02;;;;;;;7.17;5.70;;;24.70;71.80;;;25.88;46.34;100254.78;5031633;28;20650;-70
2022/07/25 00:27:29;;;;;;;13.20;5.20;;;24.70;71.90;;;25.81;46.69;100262.03;5031360;28;20637;-70
2022/07/25 00:29:55;;;;;;;5.10;4.23;;;24.60;71.90;;;25.65;47.27;100259.91;5027087;28;20641;-74
2022/07/25 00:32:22;;;;;;;9.30;5.20;;;24.60;72.30;;;25.73;46.90;100258.81;5029226;28;20616;-71
2022/07/25 00:34:49;;;;;;;6.40;4.77;;;24.60;72.50;;;25.62;47.19;100257.66;5029832;28;20620;-71
2022/07/25 00:37:16;;;;;;;5.83;4.50;;;24.50;72.80;;;25.56;47.53;100255.03;5029051;28;20666;-71
2022/07/25 00:39:43;;;;;;;5.50;4.83;;;24.50;73.10;;;25.53;47.42;100253.63;5029921;28;20616;-71
2022/07/25 00:42:10;;;;;;;5.77;5.13;;;24.50;72.90;;;25.44;47.87;100252.25;5012450;28;20720;-70
2022/07/25 00:44:37;;;;;;;6.83;5.33;;;24.40;72.90;;;25.35;47.87;100243.66;5029656;28;20732;-70
2022/07/25 00:47:04;;;;;;;8.60;5.23;;;24.30;72.90;;;25.36;47.30;100241.81;5030167;28;20622;-70
2022/07/25 00:49:31;;;;;;;5.90;5.30;;;24.30;73.00;;;25.33;47.85;100240.38;5012336;28;20609;-72
2022/07/25 00:51:59;;;;;;;5.40;4.57;;;24.20;73.60;;;25.34;47.40;100238.53;5011571;28;20619;-70
2022/07/25 00:54:29;;;;;;;5.50;5.00;;;24.20;73.40;;;25.42;47.42;100240.97;4997883;28;20683;-70
2022/07/25 00:56:57;;;;;;;8.93;5.27;;;24.20;73.40;;;25.46;47.70;100234.16;5012692;28;21013;-72
2022/07/25 00:59:24;;;;;;;6.27;4.77;;;24.20;73.70;;;25.44;46.99;100228.22;5012880;28;20747;-70
2022/07/25 01:01:51;;;;;;;7.60;5.50;;;24.20;73.40;;;25.49;47.37;100219.56;5028093;28;20717;-71
2022/07/25 01:04:18;;;;;;;8.47;5.90;;;24.30;73.70;;;25.52;47.85;100217.25;5034250;28;20627;-70
2022/07/25 01:06:45;;;;;;;5.80;5.20;;;24.30;74.20;;;25.46;48.49;100207.44;5034129;28;21314;-70
2022/07/25 01:09:12;;;;;;;6.00;4.80;;;24.30;74.80;;;25.32;48.53;100200.53;5016112;28;20621;-73
2022/07/25 01:11:39;;;;;;;5.30;4.73;;;24.20;75.30;;;25.29;49.00;100207.13;5017348;28;20608;-70
2022/07/25 01:14:06;;;;;;;7.63;5.73;;;24.20;75.40;;;25.27;48.63;100203.84;5033634;28;20657;-71
2022/07/25 01:16:34;;;;;;;6.30;5.70;;;24.10;75.80;;;25.26;48.94;100199.53;5031716;28;20656;-70
2022/07/25 01:19:01;;;;;;;5.70;5.10;;;24.10;76.20;;;25.18;49.34;100201.66;5031665;28;21246;-71
2022/07/25 01:21:28;;;;;;;5.83;5.27;;;24.10;76.70;;;25.18;49.57;100202.47;5033126;28;20608;-70
2022/07/25 01:23:55;;;;;;;5.37;4.87;;;24.10;76.70;;;25.21;49.22;100207.34;5034200;28;21168;-70
2022/07/25 01:26:22;;;;;;;14.80;5.67;;;24.10;76.80;;;25.20;49.68;100203.06;5015729;28;20756;-69
2022/07/25 01:28:49;;;;;;;6.23;5.50;;;24.00;77.20;;;25.22;49.45;100197.50;5015600;28;20616;-70
2022/07/25 01:31:16;;;;;;;7.77;4.70;;;24.00;77.40;;;25.08;49.49;100204.78;5033079;28;21059;-70
2022/07/25 01:33:43;;;;;;;5.57;5.00;;;24.00;77.40;;;25.06;50.24;100204.19;5033539;28;20691;-70
2022/07/25 01:36:11;;;;;;;5.67;5.17;;;23.90;77.80;;;25.05;49.98;100199.03;5033642;28;21014;-70
2022/07/25 01:38:38;;;;;;;5.40;4.90;;;23.90;77.70;;;25.09;49.10;100200.25;5032628;28;20616;-70
2022/07/25 01:41:05;;;;;;;5.43;4.90;;;23.90;77.40;;;25.01;49.63;100196.00;5033279;28;20694;-70
2022/07/25 01:43:32;;;;;;;7.83;5.93;;;23.90;77.50;;;25.00;49.18;100201.56;5022633;28;20640;-71
2022/07/25 01:45:59;;;;;;;6.30;5.43;;;23.90;77.60;;;25.03;49.04;100193.94;5027111;28;20669;-72
2022/07/25 01:48:26;;;;;;;6.40;5.20;;;23.80;77.20;;;25.02;48.74;100191.50;5024703;28;20715;-71
2022/07/25 01:50:53;;;;;;;5.00;4.53;;;23.80;77.00;;;24.93;49.10;100198.09;5009970;28;20703;-73
2022/07/25 01:53:20;;;;;;;5.50;4.80;;;23.80;77.20;;;24.97;49.41;100199.31;5023106;28;20670;-70
2022/07/25 01:55:47;;;;;;;5.73;5.13;;;23.80;77.60;;;24.73;49.52;100200.81;5031990;28;21017;-72
2022/07/25 01:58:14;;;;;;;6.00;4.90;;;23.70;78.10;;;24.83;50.11;100197.75;5032822;28;20619;-70
2022/07/25 02:00:41;;;;;;;7.27;5.63;;;23.60;78.60;;;24.79;50.03;100202.66;5030294;28;20637;-70
2022/07/25 02:05:55;;;;;;;6.60;5.47;;;23.60;78.70;;;24.70;50.06;100195.09;5032145;28;21226;-73
2022/07/25 02:08:22;;;;;;;10.33;6.67;;;23.60;79.00;;;24.71;49.76;100191.38;5032196;28;20672;-72
2022/07/25 02:10:49;;;;;;;6.23;5.33;;;23.60;79.00;;;24.63;50.13;100195.94;5032964;28;20612;-70
2022/07/25 02:13:16;;;;;;;9.57;6.00;;;23.60;79.30;;;24.51;50.55;100194.94;4981151;28;21025;-73
2022/07/25 02:15:43;;;;;;;8.40;5.83;;;23.50;79.30;;;24.58;50.68;100189.59;5012976;28;20640;-70
2022/07/25 02:18:10;;;;;;;7.13;5.33;;;23.50;79.60;;;24.64;50.37;100186.91;5023902;28;20688;-69
2022/07/25 02:20:38;;;;;;;6.50;5.80;;;23.50;80.10;;;24.43;50.95;100184.53;5031524;28;21159;-70
2022/07/25 02:23:05;;;;;;;5.60;4.83;;;23.40;81.00;;;24.41;51.24;100172.44;5032810;28;20651;-70
2022/07/25 02:25:32;;;;;;;9.83;5.27;;;23.40;81.10;;;24.43;51.58;100176.53;5033576;28;20657;-70
2022/07/25 02:28:00;;;;;;;4.97;4.47;;;23.30;82.10;;;24.33;52.30;100173.50;5032969;28;21010;-70
2022/07/25 02:30:27;;;;;;;5.33;4.83;;;23.30;82.80;;;24.24;52.64;100171.25;5014282;28;20735;-71
2022/07/25 02:32:54;;;;;;;6.97;5.80;;;23.20;83.50;;;24.14;52.74;100177.03;5015173;28;20814;-70
2022/07/25 02:35:21;;;;;;;7.83;5.27;;;23.10;84.30;;;23.91;53.76;100169.44;5014592;28;20999;-70
2022/07/25 02:37:48;;;;;;;7.70;5.33;;;23.00;85.20;;;23.83;54.09;100172.31;5033090;28;20726;-70
2022/07/25 02:40:15;;;;;;;11.20;5.40;;;22.90;86.80;;;23.90;53.77;100178.47;5032184;28;20636;-70
2022/07/25 02:42:42;;;;;;;8.17;6.00;;;22.90;86.90;;;23.94;53.68;100178.88;5031857;28;20616;-70
2022/07/25 02:45:09;;;;;;;7.80;6.00;;;22.90;87.30;;;23.95;54.04;100169.88;5031324;28;20609;-71
2022/07/25 02:47:36;;;;;;;7.77;5.83;;;22.90;87.60;;;24.00;54.02;100167.38;5031551;28;20652;-71
2022/07/25 02:50:04;;;;;;;6.10;4.97;;;22.90;88.00;;;24.06;53.79;100171.09;5031629;28;20763;-70
2022/07/25 02:52:31;;;;;;;9.07;6.17;;;22.90;88.10;;;23.94;54.04;100176.22;5014478;28;20619;-70
2022/07/25 02:54:59;;;;;;;7.10;6.17;;;22.90;88.10;;;23.92;54.10;100170.25;5031315;28;20664;-70
2022/07/25 02:57:27;;;;;;;6.43;5.30;;;22.90;88.60;;;23.94;53.78;100170.88;5031834;28;20667;-70
2022/07/25 02:59:54;;;;;;;8.63;6.13;;;22.90;89.00;;;23.91;54.35;100169.44;5031412;28;20891;-71
2022/07/25 03:02:21;;;;;;;7.10;6.00;;;22.80;89.30;;;23.95;54.24;100172.53;5029235;28;20633;-70
2022/07/25 03:04:48;;;;;;;9.27;6.60;;;22.90;89.60;;;23.97;54.02;100172.31;5032233;28;20674;-70
2022/07/25 03:07:15;;;;;;;6.17;5.50;;;22.90;90.10;;;23.91;53.92;100176.63;5013150;28;20664;-70
2022/07/25 03:09:42;;;;;;;7.00;6.00;;;22.90;89.70;;;23.87;54.42;100183.41;5031988;28;20621;-70
2022/07/25 03:12:09;;;;;;;9.00;6.23;;;22.80;90.40;;;23.80;54.78;100177.25;5013950;28;20713;-71
2022/07/25 03:14:36;;;;;;;8.77;6.23;;;22.70;90.20;;;23.81;54.64;100173.56;5032462;28;20761;-70
2022/07/25 03:17:03;;;;;;;7.10;5.83;;;22.70;90.60;;;23.81;54.59;100170.88;5022060;28;20686;-72
2022/07/25 03:19:30;;;;;;;7.87;6.17;;;22.70;90.60;;;23.81;54.60;100165.56;5029303;28;20641;-70
2022/07/25 03:21:57;;;;;;;8.30;6.70;;;22.70;90.80;;;23.75;54.70;100158.41;5030720;28;21312;-71
2022/07/25 03:24:24;;;;;;;8.93;6.40;;;22.70;90.80;;;23.70;55.16;100160.88;5031440;28;20663;-69
2022/07/25 03:26:51;;;;;;;8.43;6.77;;;22.60;91.10;;;23.79;55.06;100156.97;5032101;28;21260;-69
2022/07/25 03:29:18;;;;;;;9.20;6.90;;;22.60;91.20;;;23.74;55.08;100157.59;5030794;28;20644;-70
2022/07/25 03:31:45;;;;;;;9.33;6.67;;;22.70;91.30;;;23.67;55.00;100154.13;5030532;28;20637;-70
2022/07/25 03:34:12;;;;;;;7.50;6.30;;;22.60;91.30;;;23.86;54.41;100155.13;5030747;28;21272;-70
2022/07/25 03:36:39;;;;;;;9.27;7.10;;;22.70;91.30;;;23.90;54.01;100153.66;5031015;28;21115;-70
2022/07/25 03:39:06;;;;;;;8.10;6.77;;;22.70;91.30;;;23.86;54.48;100150.63;5030590;28;20629;-70
2022/07/25 03:41:33;;;;;;;11.90;6.10;;;22.70;91.50;;;23.78;54.67;100147.34;5031099;28;20621;-71
2022/07/25 03:43:59;;;;;;;7.87;6.40;;;22.60;91.70;;;23.69;55.00;100151.25;5009566;28;20636;-70
2022/07/25 03:46:26;;;;;;;6.90;5.80;;;22.60;91.90;;;23.65;55.52;100153.50;5030298;28;20719;-70
2022/07/25 03:48:54;;;;;;;7.60;6.03;;;22.50;92.20;;;23.60;55.63;100149.81;5025396;28;20639;-70
2022/07/25 03:51:21;;;;;;;9.70;6.23;;;22.50;92.50;;;23.48;56.01;100152.28;5030195;28;20647;-70
2022/07/25 03:54:07;;;;;;;8.57;6.83;;;22.50;92.80;;;23.53;55.72;100147.16;5029779;28;20764;-70
2022/07/25 03:56:38;;;;;;;6.70;6.00;;;22.50;92.80;;;23.63;55.56;100152.06;5026202;28;20670;-71
2022/07/25 03:59:13;;;;;;;10.33;6.70;;;22.50;92.90;;;23.58;55.68;100154.53;5026805;28;21069;-71
2022/07/25 04:01:42;;;;;;;10.00;6.83;;;22.50;92.90;;;23.65;55.50;100147.34;5018657;28;20636;-71
2022/07/25 04:04:10;;;;;;;12.10;6.87;;;22.50;93.20;;;23.55;55.70;100150.41;5031724;28;20715;-71
2022/07/25 04:06:37;;;;;;;8.83;6.80;;;22.50;93.10;;;23.65;55.23;100142.03;5027959;28;20651;-71
2022/07/25 04:09:06;;;;;;;11.50;6.97;;;22.50;93.10;;;23.65;55.60;100142.84;5013134;28;20629;-71
2022/07/25 04:11:34;;;;;;;8.87;6.63;;;22.50;93.20;;;23.79;55.13;100139.13;4996656;28;20613;-71
2022/07/25 04:14:01;;;;;;;8.97;7.50;;;22.60;93.40;;;23.84;55.38;100142.00;5011647;28;20748;-71
2022/07/25 04:16:29;;;;;;;11.80;7.93;;;22.70;93.50;;;23.95;55.00;100145.06;5012141;28;20744;-72
2022/07/25 04:18:56;;;;;;;11.40;8.27;;;22.80;93.20;;;24.15;54.37;100135.22;5031003;28;21036;-70
2022/07/25 04:21:24;;;;;;;9.43;7.10;;;22.90;93.10;;;24.32;54.24;100131.84;5030292;28;21268;-70
2022/07/25 04:23:52;;;;;;;9.60;7.20;;;23.10;93.00;;;24.51;53.83;100130.16;5030568;28;20633;-70
2022/07/25 04:26:19;;;;;;;8.07;6.77;;;23.30;92.80;;;24.70;53.73;100129.22;5030560;28;20629;-71
2022/07/25 04:28:46;;;;;;;9.33;7.17;;;23.40;92.70;;;24.87;53.49;100127.72;5029576;28;20633;-70
2022/07/25 04:31:13;;;;;;;9.13;6.80;;;23.60;92.60;;;25.06;52.45;100134.78;4996828;28;21294;-71
2022/07/25 04:33:41;;;;;;;9.13;6.40;;;23.70;92.40;;;25.15;52.77;100130.00;5029721;28;20640;-71
2022/07/25 04:36:08;;;;;;;9.00;6.90;;;23.90;92.30;;;25.33;52.03;100119.38;5029381;28;21093;-70
2022/07/25 04:38:35;;;;;;;9.70;7.30;;;24.00;92.20;;;25.41;51.91;100119.09;5032600;28;20639;-72
2022/07/25 04:41:03;;;;;;;8.90;7.30;;;24.10;92.00;;;25.57;51.16;100115.91;5034171;28;21040;-70
2022/07/25 04:43:30;;;;;;;7.97;6.90;;;24.20;91.60;;;25.55;51.42;100117.16;5015423;28;20633;-70
2022/07/25 04:45:58;;;;;;;9.37;7.23;;;24.20;91.30;;;25.81;50.61;100115.06;5033677;28;20639;-70
2022/07/25 04:48:25;;;;;;;9.83;7.80;;;24.50;91.00;;;26.00;49.97;100118.56;5020447;28;20684;-72
2022/07/25 04:50:53;;;;;;;8.10;7.03;;;24.70;90.40;;;26.23;48.84;100124.09;5032624;28;20621;-70
2022/07/25 04:53:20;;;;;;;8.30;6.90;;;24.90;89.60;;;26.33;49.22;100123.56;5034847;28;20707;-71
2022/07/25 04:55:47;;;;;;;9.80;6.63;;;25.10;89.30;;;26.55;48.67;100130.06;5032914;28;20760;-70
2022/07/25 04:58:14;;;;;;;11.50;7.60;;;25.30;88.70;;;26.78;48.37;100122.16;5034111;28;20687;-70
2022/07/25 05:00:41;;;;;;;9.13;6.50;;;25.50;88.00;;;27.10;47.49;100114.69;5027818;28;21001;-70
2022/07/25 05:03:09;;;;;;;8.60;6.93;;;25.80;87.50;;;27.37;47.10;100118.59;5024867;28;21291;-70
2022/07/25 05:05:36;;;;;;;10.47;7.07;;;26.00;86.90;;;27.23;48.20;100123.34;5019867;28;21181;-72
2022/07/25 05:08:03;;;;;;;13.43;7.87;;;26.00;86.80;;;27.27;47.92;100119.16;5032726;28;20731;-69
2022/07/25 05:10:30;;;;;;;8.80;7.10;;;26.10;87.00;;;27.40;47.99;100118.16;5000562;28;20619;-70
2022/07/25 05:12:58;;;;;;;8.53;6.80;;;26.20;87.20;;;27.51;48.00;100120.03;5033504;28;20643;-69
2022/07/25 05:15:25;;;;;;;8.87;6.87;;;26.30;87.10;;;27.28;48.59;100126.13;5034028;28;21447;-70
2022/07/25 05:17:52;;;;;;;10.00;7.20;;;26.30;87.00;;;27.27;48.69;100115.66;5034007;28;20663;-70
2022/07/25 05:20:19;;;;;;;9.87;7.00;;;26.20;87.20;;;26.94;49.64;100108.13;5034366;28;20617;-69
2022/07/25 05:22:46;;;;;;;14.53;8.20;;;26.00;87.80;;;26.75;50.05;100101.19;5032931;28;20633;-70
2022/07/25 05:25:13;;;;;;;11.20;7.37;;;25.80;88.40;;;26.78;49.79;100112.28;5034973;28;20624;-70
2022/07/25 05:27:40;;;;;;;11.37;7.93;;;25.90;88.40;;;26.89;49.76;100105.34;5031833;28;21215;-72
2022/07/25 05:30:11;;;;;;;7.70;6.90;;;25.90;88.80;;;27.20;48.97;100110.41;5031833;28;21005;-70
2022/07/25 05:32:39;;;;;;;10.77;8.07;;;26.00;88.80;;;27.10;49.14;100098.63;5027954;28;21506;-69
2022/07/25 05:35:08;;;;;;;8.63;7.57;;;26.00;88.80;;;27.08;49.57;100096.19;5016698;28;21259;-73
2022/07/25 05:37:36;;;;;;;12.03;6.60;;;26.10;88.20;;;27.37;49.09;100100.66;5029465;28;20732;-70
2022/07/25 05:40:06;;;;;;;8.20;7.23;;;26.30;88.10;;;27.71;48.28;100115.13;5017797;28;20705;-70
2022/07/25 05:42:33;;;;;;;9.43;7.63;;;26.50;87.50;;;28.15;47.25;100108.34;5033542;28;20629;-69
2022/07/25 05:45:01;;;;;;;9.70;6.77;;;26.90;86.60;;;28.01;47.74;100115.00;5033791;28;20595;-70
2022/07/25 05:47:28;;;;;;;17.73;8.20;;;27.00;86.20;;;28.46;46.92;100121.31;5024531;28;20663;-70
2022/07/25 05:49:55;;;;;;;9.63;7.40;;;27.30;85.80;;;28.73;45.97;100106.28;5031223;28;20647;-72
2022/07/25 05:52:22;;;;;;;9.13;6.97;;;27.60;84.70;;;28.09;47.38;100111.97;5031561;28;20635;-69
2022/07/25 05:54:49;;;;;;;9.33;7.00;;;27.30;84.90;;;28.40;46.74;100100.81;5033279;28;20674;-71
2022/07/25 05:57:16;;;;;;;8.80;7.33;;;27.40;84.80;;;28.41;46.53;100107.78;5032530;28;20726;-69
2022/07/25 05:59:43;;;;;;;9.73;7.63;;;27.40;84.60;;;28.35;46.93;100103.38;5033347;28;20617;-71
2022/07/25 06:02:10;;;;;;;9.60;7.40;;;27.40;84.60;;;28.69;45.83;100105.13;5030815;28;20633;-69
2022/07/25 06:04:37;;;;;;;9.50;7.33;;;27.50;84.30;;;28.86;45.36;100091.75;5032696;28;20698;-70
2022/07/25 06:07:04;;;;;;;9.50;7.17;;;27.70;83.70;;;29.39;44.54;100100.19;5048214;22;20672;-64
2022/07/25 06:09:31;;;;;;;7.80;6.47;;;28.10;82.60;;;29.72;43.15;100102.03;5048215;28;21024;-64
2022/07/25 06:11:58;;;;;;;11.10;8.03;;;28.50;81.90;;;29.97;43.64;100093.50;5029450;28;20611;-67
2022/07/25 06:14:27;;;;;;;13.40;7.80;;;28.70;81.20;;;30.15;42.55;100096.72;5035238;28;20669;-66
2022/07/25 06:16:55;;;;;;;11.30;7.77;;;28.90;80.60;;;30.86;41.65;100089.47;5035153;28;20632;-63
2022/07/25 06:19:22;;;;;;;9.00;6.87;;;29.30;79.70;;;31.44;40.41;100092.13;5042553;28;20640;-66
2022/07/25 06:21:49;;;;;;;8.87;7.33;;;29.70;79.00;;;31.92;39.62;100096.44;5051744;28;20711;-67
2022/07/25 06:24:16;;;;;;;9.50;7.93;;;30.10;77.70;;;32.07;39.47;100099.25;5052843;28;20645;-64
2022/07/25 06:26:43;;;;;;;8.90;7.17;;;30.40;77.00;;;32.64;37.67;100091.09;5034956;28;20634;-65
2022/07/25 06:29:11;;;;;;;8.83;7.33;;;30.80;75.20;;;33.77;36.34;100087.03;5052504;28;20671;-66
2022/07/25 06:31:38;;;;;;;14.87;7.57;;;31.60;73.90;;;34.74;34.53;100097.16;5051368;28;20647;-66
2022/07/25 06:34:05;;;;;;;11.63;8.20;;;32.20;72.20;;;35.94;32.69;100102.63;5052276;28;20616;-64
2022/07/25 06:36:33;;;;;;;9.53;7.97;;;32.90;70.30;;;36.47;31.55;100101.44;5034134;28;20639;-66
2022/07/25 06:39:00;;;;;;;10.80;8.07;;;33.60;68.40;;;37.39;30.56;100090.78;5052739;28;20635;-66
2022/07/25 06:41:27;;;;;;;7.27;6.57;;;34.10;66.80;;;37.16;30.46;100086.25;5051926;28;20652;-65
2022/07/25 06:43:54;;;;;;;9.90;8.33;;;34.40;65.60;;;38.88;27.95;100089.84;5051120;28;20630;-66
2022/07/25 06:46:21;;;;;;;8.77;7.90;;;35.00;64.60;;;39.60;27.03;100085.03;5051824;28;20707;-65
2022/07/25 06:48:48;;;;;;;8.70;7.50;;;35.60;63.10;;;39.36;27.42;100079.09;5050316;28;21345;-65
2022/07/25 06:51:15;;;;;;;9.03;7.90;;;35.80;61.50;;;40.70;25.88;100086.41;5049106;28;21198;-67
2022/07/25 06:53:42;;;;;;;8.83;7.80;;;36.30;60.90;;;40.39;25.94;100084.91;5033638;28;20643;-68
2022/07/25 06:56:09;;;;;;;8.07;7.27;;;36.40;59.70;;;40.42;25.93;100079.66;5052802;28;20685;-69
2022/07/25 06:58:43;;;;;;;9.27;8.27;;;36.60;58.90;;;41.73;24.32;100081.56;5050608;28;20678;-67
2022/07/25 07:01:10;;;;;;;8.90;7.40;;;37.20;58.10;;;42.36;24.02;100088.75;5048869;28;20645;-67
2022/07/25 07:03:38;;;;;;;13.17;8.20;;;37.60;57.30;;;43.37;22.48;100083.84;5049459;28;20632;-67
2022/07/25 07:06:08;;;;;;;9.80;7.50;;;38.30;56.60;;;43.72;22.33;100090.53;5017480;28;20612;-69
2022/07/25 07:08:36;;;;;;;8.80;7.90;;;38.70;55.10;;;43.61;22.23;100089.38;5032581;28;20699;-67
2022/07/25 07:11:06;;;;;;;8.50;7.80;;;38.80;54.40;;;43.99;21.99;100086.28;5051537;28;20616;-68
2022/07/25 07:13:34;;;;;;;9.40;8.50;;;39.30;53.70;;;43.60;22.47;100083.06;5032526;28;20693;-69
2022/07/25 07:16:02;;;;;;;9.30;8.40;;;39.20;53.50;;;42.99;22.71;100078.59;4984452;28;20684;-69
2022/07/25 07:18:29;;;;;;;8.77;8.07;;;38.90;52.90;;;43.49;22.30;100086.63;5034272;28;20635;-69
2022/07/25 07:20:56;;;;;;;8.53;7.73;;;39.10;52.60;;;44.20;21.30;100084.22;5051191;28;20604;-67
2022/07/25 07:23:23;;;;;;;9.10;8.20;;;39.80;52.10;;;44.84;20.54;100084.97;5051680;28;21176;-66
2022/07/25 07:25:50;;;;;;;8.80;8.00;;;40.00;51.50;;;44.66;21.06;100086.41;5050986;28;20686;-68
2022/07/25 07:28:17;;;;;;;8.90;8.10;;;39.80;51.40;;;45.20;20.56;100079.28;5050513;28;20758;-70
2022/07/25 07:30:45;;;;;;;8.47;7.87;;;40.10;51.00;;;45.96;20.07;100078.06;5051115;28;21363;-67
2022/07/25 07:33:32;;;;;;;8.70;7.90;;;40.60;50.50;;;46.93;19.32;100079.72;5050406;28;20624;-68
2022/07/25 07:36:00;;;;;;;8.80;8.00;;;41.50;50.20;;;46.51;19.02;100080.47;5028120;28;20656;-69
2022/07/25 07:38:27;;;;;;;10.73;8.60;;;41.40;49.10;;;47.66;18.31;100077.50;5013718;28;20617;-69
2022/07/25 07:40:54;;;;;;;9.23;8.10;;;41.80;48.60;;;48.57;17.46;100082.78;5034059;28;21047;-66
2022/07/25 07:43:21;;;;;;;9.47;8.67;;;42.40;48.00;;;49.28;16.89;100082.41;5050948;28;20658;-66
2022/07/25 07:45:55;;;;;;;8.23;7.53;;;42.90;47.70;;;48.89;16.99;100086.75;5033395;28;20721;-69
2022/07/25 07:48:22;;;;;;;7.77;7.17;;;43.00;46.90;;;49.36;16.49;100077.72;5050205;28;20709;-71
2022/07/25 07:50:49;;;;;;;8.87;8.20;;;43.20;46.70;;;47.31;18.40;100069.41;5048645;28;20635;-68
2022/07/25 07:53:16;;;;;;;8.80;8.00;;;42.20;47.00;;;48.28;17.81;100073.31;5016284;28;20739;-67
2022/07/25 07:55:54;;;;;;;8.57;7.77;;;42.60;47.10;;;47.94;18.03;100061.34;5050744;28;21247;-70
2022/07/25 07:58:21;;;;;;;8.30;7.60;;;42.40;47.00;;;46.88;18.93;100063.47;5050314;28;21235;-66
2022/07/25 08:00:50;;;;;;;8.17;7.57;;;41.90;47.20;;;47.07;18.82;100066.22;5048033;28;20735;-66
2022/07/25 08:03:19;;;;;;;8.80;8.10;;;41.50;47.90;;;46.83;19.23;100068.09;5014098;28;20659;-70
2022/07/25 08:05:48;;;;;;;8.43;7.83;;;41.80;47.50;;;48.73;17.60;100072.31;5050344;28;20627;-65
2022/07/25 08:08:16;;;;;;;8.77;8.13;;;42.50;47.00;;;48.83;17.21;100079.94;5013102;28;21027;-69
2022/07/25 08:10:46;;;;;;;8.60;7.90;;;43.00;46.40;;;48.41;17.87;100080.19;5012846;28;20642;-68
2022/07/25 08:13:21;;;;;;;8.40;7.70;;;42.60;46.30;;;48.08;18.14;100085.66;5048818;28;20636;-68
2022/07/25 08:15:58;;;;;;;9.27;8.47;;;42.60;46.60;;;48.63;17.75;100082.06;5048967;28;21113;-69
2022/07/25 08:18:31;;;;;;;9.83;8.57;;;42.50;46.90;;;48.61;17.79;100075.31;5030141;28;20651;-67
2022/07/25 08:21:04;;;;;;;9.50;8.70;;;42.40;46.60;;;50.47;16.22;100073.31;5024423;28;20643;-68
2022/07/25 08:23:37;;;;;;;8.53;7.87;;;43.60;45.80;;;52.14;14.89;100081.38;5050034;28;20634;-67
2022/07/25 08:26:06;;;;;;;8.70;8.00;;;44.70;45.00;;;50.65;15.84;100073.41;5033692;28;20620;-65
2022/07/25 08:28:33;;;;;;;8.27;7.60;;;44.10;44.60;;;50.78;16.30;100078.19;5050229;28;20692;-67
2022/07/25 08:31:00;;;;;;;10.47;8.50;;;44.10;44.70;;;50.42;16.14;100068.13;5049896;28;20631;-69
2022/07/25 08:33:27;;;;;;;11.13;7.87;;;43.90;44.80;;;49.89;16.70;100061.50;5047156;28;20640;-67
2022/07/25 08:35:57;;;;;;;8.10;7.57;;;44.00;44.70;;;50.00;16.14;100054.84;5046535;28;20697;-67
2022/07/25 08:38:27;;;;;;;9.80;9.00;;;44.10;44.80;;;50.24;16.03;100068.03;5046710;28;20690;-69
2022/07/25 08:40:55;;;;;;;7.87;7.23;;;44.50;44.00;;;51.51;14.73;100059.25;5049714;28;20603;-69
2022/07/25 08:43:23;;;;;;;8.17;7.47;;;45.00;43.70;;;51.86;15.05;100062.78;5033909;28;20638;-70
2022/07/25 08:45:54;;;;;;;8.50;7.90;;;45.50;43.50;;;52.27;14.41;100062.28;5030007;28;21026;-67
2022/07/25 08:48:24;;;;;;;8.70;8.00;;;45.90;43.10;;;52.48;14.79;100065.78;5032602;28;21210;-67
2022/07/25 08:50:53;;;;;;;8.43;7.80;;;46.10;42.70;;;52.37;14.55;100059.47;5032798;28;20624;-67
2022/07/25 08:53:20;;;;;;;7.93;7.23;;;46.00;42.10;;;52.28;14.42;100053.53;5015918;28;20635;-70
2022/07/25 08:56:06;;;;;;;8.40;7.70;;;46.10;41.80;;;52.51;14.55;100044.69;5034581;28;21240;-70
2022/07/25 08:58:42;;;;;;;8.20;7.60;;;46.20;42.10;;;52.56;13.92;100041.47;5033884;28;21093;-67
2022/07/25 09:01:13;;;;;;;7.50;7.00;;;46.10;41.90;;;54.25;12.77;100047.59;5050034;28;20673;-68
2022/07/25 09:03:42;;;;;;;7.50;7.00;;;46.90;41.50;;;52.41;13.96;100032.41;5042352;28;20658;-68
2022/07/25 09:06:28;;;;;;;8.03;7.33;;;46.50;41.00;;;54.24;12.50;100037.59;5031435;28;20658;-70
2022/07/25 09:08:58;;;;;;;7.27;6.77;;;47.30;40.70;;;54.54;12.87;100038.41;5032786;28;20647;-70
2022/07/25 09:11:35;;;;;;;7.40;7.00;;;47.60;40.20;;;56.12;11.36;100036.91;5031929;28;20623;-70
2022/07/25 09:14:06;;;;;;;7.30;6.87;;;48.30;40.10;;;55.52;11.18;100026.88;5033373;28;20628;-67
2022/07/25 09:16:42;;;;;;;7.40;7.00;;;49.20;39.00;;;55.34;12.41;100027.19;5016510;28;21250;-70
2022/07/25 09:19:21;;;;;;;8.10;7.60;;;48.70;39.20;;;54.92;12.71;100021.47;5033279;28;21198;-70
2022/07/25 09:22:06;;;;;;;7.20;6.70;;;47.80;39.80;;;56.11;11.87;100024.13;5049285;28;20635;-70
2022/07/25 09:24:43;;;;;;;7.03;6.63;;;48.90;39.30;;;56.37;11.48;100025.19;5035336;28;20700;-67
2022/07/25 09:27:11;;;;;;;6.20;5.80;;;49.10;38.80;;;58.77;10.26;100025.06;5020192;28;20755;-68
2022/07/25 09:29:43;;;;;;;7.57;7.17;;;50.30;38.60;;;57.70;10.53;100023.06;5034987;28;20304;-67
2022/07/25 09:32:20;;;;;;;7.37;7.00;;;49.90;38.10;;;54.72;11.61;100002.63;5020629;28;20209;-70
2022/07/25 09:34:49;;;;;;;6.67;6.27;;;49.10;38.30;;;53.06;13.33;100003.72;5032975;28;20756;-68
2022/07/25 09:37:25;;;;;;;7.83;7.17;;;47.80;38.60;;;53.40;12.61;100001.03;5053423;28;20678;-66
2022/07/25 09:39:52;;;;;;;6.70;6.30;;;47.50;38.90;;;52.77;13.58;99987.63;5036322;28;20300;-69
2022/07/25 09:42:26;;;;;;;8.30;6.53;;;47.50;39.00;;;54.88;12.21;99992.81;5054424;28;20620;-66
2022/07/25 09:45:13;;;;;;;6.97;6.57;;;47.70;39.10;;;55.51;11.18;99988.13;5055362;28;20609;-70
2022/07/25 09:47:59;;;;;;;6.70;6.30;;;48.10;38.60;;;55.19;11.81;99980.28;5051143;28;20659;-70
2022/07/25 09:50:29;;;;;;;6.43;6.13;;;48.20;38.20;;;56.06;10.61;99988.25;5042892;28;20734;-69
2022/07/25 09:53:01;;;;;;;6.27;6.03;;;48.70;37.90;;;56.95;10.87;99995.41;5050865;28;20198;-70
2022/07/25 09:55:29;;;;;;;6.95;5.95;;;49.40;37.70;;;53.59;12.25;99986.50;5018506;28;20231;-70
2022/07/25 09:57:56;;;;;;;7.17;6.57;;;48.90;37.20;;;55.05;11.27;99983.34;5052586;28;20654;-69
2022/07/25 10:00:26;;;;;;;6.50;6.20;;;48.90;37.90;;;52.93;12.99;99971.22;5035255;28;20312;-69
2022/07/25 10:03:28;;;;;;;7.17;6.70;;;47.90;37.70;;;54.18;12.50;99975.06;5034520;28;20228;-70
2022/07/25 10:06:20;;;;;;;6.47;6.07;;;47.70;38.50;;;51.85;13.89;99966.63;5033944;28;20197;-69
2022/07/25 10:08:48;;;;;;;7.10;6.60;;;47.20;38.30;;;48.14;16.67;99960.50;5018110;28;20651;-67
2022/07/25 10:11:33;;;;;;;7.53;6.73;;;44.90;39.90;;;45.67;18.60;99949.78;5034874;28;20647;-69
2022/07/25 10:14:11;;;;;;;10.60;6.60;;;42.90;41.20;;;44.18;20.63;99946.28;5050849;28;20626;-69
2022/07/25 10:16:47;;;;;;;8.53;7.80;;;41.80;42.40;;;44.73;20.04;99943.50;5017787;28;20696;-69
2022/07/25 10:19:14;;;;;;;7.97;7.40;;;41.30;43.10;;;45.46;19.08;99949.28;5044079;28;20638;-67
2022/07/25 10:21:41;;;;;;;7.90;7.20;;;41.50;42.70;;;46.23;17.65;99950.22;5051422;28;20711;-69